sensor_id;sensor_type;location;lat;lon;timestamp;pressure;altitude;pressure_sealevel;temperature;humidity
39555;BME280;25231;48.746;9.234;2023-02-21T00:00:57;97196.69;;;6.94;72.65
39555;BME280;25231;48.746;9.234;2023-02-21T00:03:41;97197.47;;;6.95;72.75
39555;BME280;25231;48.746;9.234;2023-02-21T00:06:24;97188.50;;;7.04;72.43
39555;BME280;25231;48.746;9.234;2023-02-21T00:09:08;97190.44;;;6.89;73.15
39555;BME280;25231;48.746;9.234;2023-02-21T00:11:52;97197.63;;;6.87;73.69
39555;BME280;25231;48.746;9.234;2023-02-21T00:14:37;97182.22;;;6.85;73.62
39555;BME280;25231;48.746;9.234;2023-02-21T00:17:21;97184.78;;;6.79;73.98
39555;BME280;25231;48.746;9.234;2023-02-21T00:20:05;97179.97;;;6.82;73.96
39555;BME280;25231;48.746;9.234;2023-02-21T00:22:49;97188.78;;;6.81;74.36
39555;BME280;25231;48.746;9.234;2023-02-21T00:25:33;97181.56;;;6.77;74.17
39555;BME280;25231;48.746;9.234;2023-02-21T00:28:17;97178.97;;;6.83;74.18
39555;BME280;25231;48.746;9.234;2023-02-21T00:31:01;97173.91;;;6.75;74.56
39555;BME280;25231;48.746;9.234;2023-02-21T00:33:45;97175.94;;;6.73;74.56
39555;BME280;25231;48.746;9.234;2023-02-21T00:36:29;97178.56;;;6.80;74.53
39555;BME280;25231;48.746;9.234;2023-02-21T00:39:13;97178.53;;;6.73;74.46
39555;BME280;25231;48.746;9.234;2023-02-21T00:41:57;97171.22;;;6.55;75.79
39555;BME280;25231;48.746;9.234;2023-02-21T00:44:41;97169.66;;;6.61;75.43
39555;BME280;25231;48.746;9.234;2023-02-21T00:47:25;97165.88;;;6.70;74.83
39555;BME280;25231;48.746;9.234;2023-02-21T00:50:09;97169.25;;;6.57;74.93
39555;BME280;25231;48.746;9.234;2023-02-21T00:52:53;97175.47;;;6.63;74.65
39555;BME280;25231;48.746;9.234;2023-02-21T00:55:36;97163.28;;;6.70;74.20
39555;BME280;25231;48.746;9.234;2023-02-21T00:58:21;97173.09;;;6.68;74.41
39555;BME280;25231;48.746;9.234;2023-02-21T01:01:05;97157.66;;;6.66;74.32
39555;BME280;25231;48.746;9.234;2023-02-21T01:03:49;97165.47;;;6.66;74.17
39555;BME280;25231;48.746;9.234;2023-02-21T01:06:33;97158.66;;;6.65;74.00
39555;BME280;25231;48.746;9.234;2023-02-21T01:09:16;97161.44;;;6.64;74.37
39555;BME280;25231;48.746;9.234;2023-02-21T01:12:00;97152.41;;;6.60;74.19
39555;BME280;25231;48.746;9.234;2023-02-21T01:14:44;97166.63;;;6.57;74.17
39555;BME280;25231;48.746;9.234;2023-02-21T01:17:28;97155.63;;;6.62;73.77
39555;BME280;25231;48.746;9.234;2023-02-21T01:20:12;97151.00;;;6.57;73.52
39555;BME280;25231;48.746;9.234;2023-02-21T01:22:56;97154.59;;;6.56;73.49
39555;BME280;25231;48.746;9.234;2023-02-21T01:25:40;97159.59;;;6.58;72.72
39555;BME280;25231;48.746;9.234;2023-02-21T01:28:24;97168.44;;;6.63;73.02
39555;BME280;25231;48.746;9.234;2023-02-21T01:31:08;97156.06;;;6.65;72.97
39555;BME280;25231;48.746;9.234;2023-02-21T01:33:52;97156.00;;;6.59;73.16
39555;BME280;25231;48.746;9.234;2023-02-21T01:36:39;97149.81;;;6.60;73.04
39555;BME280;25231;48.746;9.234;2023-02-21T01:39:23;97150.00;;;6.58;72.94
39555;BME280;25231;48.746;9.234;2023-02-21T01:42:09;97152.22;;;6.61;72.59
39555;BME280;25231;48.746;9.234;2023-02-21T01:47:59;97147.44;;;6.65;72.18
39555;BME280;25231;48.746;9.234;2023-02-21T01:50:43;97146.25;;;6.67;72.11
39555;BME280;25231;48.746;9.234;2023-02-21T01:53:27;97143.44;;;6.62;72.38
39555;BME280;25231;48.746;9.234;2023-02-21T01:56:11;97135.78;;;6.61;72.60
39555;BME280;25231;48.746;9.234;2023-02-21T01:58:59;97140.25;;;6.67;72.06
39555;BME280;25231;48.746;9.234;2023-02-21T02:01:55;97129.84;;;6.74;71.81
39555;BME280;25231;48.746;9.234;2023-02-21T02:04:42;97129.44;;;6.77;71.83
39555;BME280;25231;48.746;9.234;2023-02-21T02:07:28;97129.06;;;6.73;71.90
39555;BME280;25231;48.746;9.234;2023-02-21T02:10:13;97120.44;;;6.73;72.05
39555;BME280;25231;48.746;9.234;2023-02-21T02:13:28;97124.66;;;6.80;71.32
39555;BME280;25231;48.746;9.234;2023-02-21T02:16:23;97116.84;;;6.80;71.42
39555;BME280;25231;48.746;9.234;2023-02-21T02:19:13;97129.50;;;6.83;71.20
39555;BME280;25231;48.746;9.234;2023-02-21T02:21:54;97122.66;;;6.82;71.30
39555;BME280;25231;48.746;9.234;2023-02-21T02:24:43;97119.06;;;6.83;71.30
39555;BME280;25231;48.746;9.234;2023-02-21T02:27:42;97116.28;;;6.85;71.35
39555;BME280;25231;48.746;9.234;2023-02-21T02:30:39;97109.63;;;6.82;71.18
39555;BME280;25231;48.746;9.234;2023-02-21T02:33:53;97110.22;;;6.78;71.50
39555;BME280;25231;48.746;9.234;2023-02-21T02:36:33;97103.00;;;6.73;71.81
39555;BME280;25231;48.746;9.234;2023-02-21T02:39:09;97109.41;;;6.77;71.44
39555;BME280;25231;48.746;9.234;2023-02-21T02:41:52;97105.59;;;6.73;71.86
39555;BME280;25231;48.746;9.234;2023-02-21T02:44:31;97104.97;;;6.71;71.78
39555;BME280;25231;48.746;9.234;2023-02-21T02:47:03;97099.38;;;6.67;71.72
39555;BME280;25231;48.746;9.234;2023-02-21T02:49:32;97099.72;;;6.58;72.03
39555;BME280;25231;48.746;9.234;2023-02-21T02:52:06;97094.94;;;6.61;72.36
39555;BME280;25231;48.746;9.234;2023-02-21T02:54:32;97090.47;;;6.49;72.65
39555;BME280;25231;48.746;9.234;2023-02-21T02:56:58;97087.25;;;6.47;73.01
39555;BME280;25231;48.746;9.234;2023-02-21T02:59:26;97090.50;;;6.55;72.79
39555;BME280;25231;48.746;9.234;2023-02-21T03:07:36;97088.66;;;6.49;73.37
39555;BME280;25231;48.746;9.234;2023-02-21T03:10:27;97101.06;;;6.47;73.66
39555;BME280;25231;48.746;9.234;2023-02-21T03:13:05;97098.91;;;6.51;73.23
39555;BME280;25231;48.746;9.234;2023-02-21T03:15:53;97096.28;;;6.51;73.17
39555;BME280;25231;48.746;9.234;2023-02-21T03:20:56;97095.31;;;6.58;72.85
39555;BME280;25231;48.746;9.234;2023-02-21T03:23:25;97088.69;;;6.56;73.08
39555;BME280;25231;48.746;9.234;2023-02-21T03:25:52;97092.28;;;6.55;73.45
39555;BME280;25231;48.746;9.234;2023-02-21T03:28:19;97092.47;;;6.53;73.02
39555;BME280;25231;48.746;9.234;2023-02-21T03:30:48;97087.25;;;6.47;73.25
39555;BME280;25231;48.746;9.234;2023-02-21T03:33:15;97091.41;;;6.41;73.64
39555;BME280;25231;48.746;9.234;2023-02-21T03:35:40;97091.03;;;6.44;73.45
39555;BME280;25231;48.746;9.234;2023-02-21T03:38:06;97090.63;;;6.41;73.77
39555;BME280;25231;48.746;9.234;2023-02-21T03:40:32;97086.03;;;6.43;73.40
39555;BME280;25231;48.746;9.234;2023-02-21T03:43:00;97092.22;;;6.42;73.35
39555;BME280;25231;48.746;9.234;2023-02-21T03:45:25;97084.00;;;6.38;73.55
39555;BME280;25231;48.746;9.234;2023-02-21T03:47:51;97087.22;;;6.40;73.54
39555;BME280;25231;48.746;9.234;2023-02-21T03:50:17;97087.56;;;6.31;73.92
39555;BME280;25231;48.746;9.234;2023-02-21T03:52:42;97085.97;;;6.30;74.15
39555;BME280;25231;48.746;9.234;2023-02-21T03:55:08;97085.13;;;6.22;74.22
39555;BME280;25231;48.746;9.234;2023-02-21T03:57:33;97084.91;;;6.17;74.49
39555;BME280;25231;48.746;9.234;2023-02-21T03:59:59;97083.69;;;6.20;74.75
39555;BME280;25231;48.746;9.234;2023-02-21T04:02:25;97080.31;;;6.26;74.38
39555;BME280;25231;48.746;9.234;2023-02-21T04:04:50;97085.94;;;6.23;74.48
39555;BME280;25231;48.746;9.234;2023-02-21T04:07:17;97088.13;;;6.26;74.43
39555;BME280;25231;48.746;9.234;2023-02-21T04:09:43;97086.75;;;6.23;74.28
39555;BME280;25231;48.746;9.234;2023-02-21T04:12:09;97091.72;;;6.18;74.49
39555;BME280;25231;48.746;9.234;2023-02-21T04:14:34;97090.06;;;6.11;74.89
39555;BME280;25231;48.746;9.234;2023-02-21T04:17:00;97087.28;;;6.12;74.79
39555;BME280;25231;48.746;9.234;2023-02-21T04:19:25;97084.28;;;6.15;74.51
39555;BME280;25231;48.746;9.234;2023-02-21T04:21:50;97078.66;;;6.12;74.84
39555;BME280;25231;48.746;9.234;2023-02-21T04:24:16;97084.03;;;6.10;74.59
39555;BME280;25231;48.746;9.234;2023-02-21T04:26:41;97081.41;;;6.04;75.05
39555;BME280;25231;48.746;9.234;2023-02-21T04:29:07;97081.78;;;6.01;74.95
39555;BME280;25231;48.746;9.234;2023-02-21T04:31:32;97082.59;;;6.01;75.07
39555;BME280;25231;48.746;9.234;2023-02-21T04:33:58;97088.41;;;6.03;74.87
39555;BME280;25231;48.746;9.234;2023-02-21T04:36:24;97091.22;;;6.02;75.03
39555;BME280;25231;48.746;9.234;2023-02-21T04:38:51;97096.59;;;6.00;75.35
39555;BME280;25231;48.746;9.234;2023-02-21T04:41:17;97089.38;;;6.02;75.14
39555;BME280;25231;48.746;9.234;2023-02-21T04:43:43;97090.75;;;5.98;75.13
39555;BME280;25231;48.746;9.234;2023-02-21T04:46:10;97092.38;;;5.99;74.79
39555;BME280;25231;48.746;9.234;2023-02-21T04:48:35;97081.97;;;5.99;74.86
39555;BME280;25231;48.746;9.234;2023-02-21T04:51:01;97085.56;;;5.98;74.98
39555;BME280;25231;48.746;9.234;2023-02-21T04:53:26;97076.94;;;5.98;74.90
39555;BME280;25231;48.746;9.234;2023-02-21T04:55:52;97087.34;;;5.98;75.24
39555;BME280;25231;48.746;9.234;2023-02-21T04:58:17;97084.16;;;5.96;75.54
39555;BME280;25231;48.746;9.234;2023-02-21T05:00:43;97079.75;;;5.96;75.21
39555;BME280;25231;48.746;9.234;2023-02-21T05:03:08;97078.09;;;5.89;75.20
39555;BME280;25231;48.746;9.234;2023-02-21T05:05:33;97088.81;;;5.58;77.38
39555;BME280;25231;48.746;9.234;2023-02-21T05:07:58;97079.78;;;5.54;77.60
39555;BME280;25231;48.746;9.234;2023-02-21T05:10:24;97087.66;;;5.39;79.16
39555;BME280;25231;48.746;9.234;2023-02-21T05:12:49;97079.44;;;5.14;80.93
39555;BME280;25231;48.746;9.234;2023-02-21T05:15:15;97076.34;;;5.04;81.53
39555;BME280;25231;48.746;9.234;2023-02-21T05:17:41;97081.03;;;4.94;82.02
39555;BME280;25231;48.746;9.234;2023-02-21T05:20:07;97076.06;;;4.78;83.44
39555;BME280;25231;48.746;9.234;2023-02-21T05:22:37;97069.34;;;4.83;83.62
39555;BME280;25231;48.746;9.234;2023-02-21T05:25:05;97069.59;;;4.74;84.51
39555;BME280;25231;48.746;9.234;2023-02-21T05:27:31;97070.97;;;4.70;84.93
39555;BME280;25231;48.746;9.234;2023-02-21T05:29:57;97072.50;;;4.64;85.28
39555;BME280;25231;48.746;9.234;2023-02-21T05:32:22;97070.44;;;4.59;85.81
39555;BME280;25231;48.746;9.234;2023-02-21T05:34:47;97071.69;;;4.64;84.88
39555;BME280;25231;48.746;9.234;2023-02-21T05:37:14;97075.00;;;4.72;84.59
39555;BME280;25231;48.746;9.234;2023-02-21T05:39:39;97076.88;;;4.64;84.83
39555;BME280;25231;48.746;9.234;2023-02-21T05:42:05;97076.44;;;4.60;85.21
39555;BME280;25231;48.746;9.234;2023-02-21T05:44:32;97080.28;;;4.64;85.02
39555;BME280;25231;48.746;9.234;2023-02-21T05:46:57;97079.47;;;4.64;85.02
39555;BME280;25231;48.746;9.234;2023-02-21T05:49:22;97076.53;;;4.67;84.95
39555;BME280;25231;48.746;9.234;2023-02-21T05:51:47;97082.91;;;4.85;84.31
39555;BME280;25231;48.746;9.234;2023-02-21T05:54:17;97081.34;;;4.84;84.15
39555;BME280;25231;48.746;9.234;2023-02-21T05:56:44;97081.44;;;4.76;84.24
39555;BME280;25231;48.746;9.234;2023-02-21T05:59:10;97086.44;;;4.78;84.32
39555;BME280;25231;48.746;9.234;2023-02-21T06:01:36;97090.72;;;4.85;83.68
39555;BME280;25231;48.746;9.234;2023-02-21T06:04:01;97085.50;;;4.85;84.09
39555;BME280;25231;48.746;9.234;2023-02-21T06:06:27;97077.72;;;4.85;84.22
39555;BME280;25231;48.746;9.234;2023-02-21T06:08:53;97069.69;;;5.01;83.82
39555;BME280;25231;48.746;9.234;2023-02-21T06:11:26;97072.31;;;5.01;83.43
39555;BME280;25231;48.746;9.234;2023-02-21T06:13:53;97076.03;;;5.14;82.65
39555;BME280;25231;48.746;9.234;2023-02-21T06:16:20;97070.09;;;5.20;82.98
39555;BME280;25231;48.746;9.234;2023-02-21T06:18:52;97076.47;;;5.17;83.11
39555;BME280;25231;48.746;9.234;2023-02-21T06:21:18;97068.53;;;5.25;85.79
39555;BME280;25231;48.746;9.234;2023-02-21T06:23:44;97069.41;;;5.32;85.74
39555;BME280;25231;48.746;9.234;2023-02-21T06:26:09;97061.78;;;5.31;85.05
39555;BME280;25231;48.746;9.234;2023-02-21T06:28:35;97057.66;;;5.36;82.57
39555;BME280;25231;48.746;9.234;2023-02-21T06:31:00;97064.09;;;5.40;81.92
39555;BME280;25231;48.746;9.234;2023-02-21T06:33:27;97063.78;;;5.50;81.57
39555;BME280;25231;48.746;9.234;2023-02-21T06:35:52;97058.06;;;5.61;80.98
39555;BME280;25231;48.746;9.234;2023-02-21T06:38:17;97059.19;;;5.80;80.35
39555;BME280;25231;48.746;9.234;2023-02-21T06:40:43;97063.78;;;5.78;80.35
39555;BME280;25231;48.746;9.234;2023-02-21T06:43:09;97059.22;;;5.86;79.96
39555;BME280;25231;48.746;9.234;2023-02-21T06:45:34;97067.41;;;6.05;79.62
39555;BME280;25231;48.746;9.234;2023-02-21T06:47:59;97073.63;;;6.10;78.74
39555;BME280;25231;48.746;9.234;2023-02-21T06:50:25;97072.25;;;6.14;79.08
39555;BME280;25231;48.746;9.234;2023-02-21T06:52:50;97075.53;;;6.23;78.47
39555;BME280;25231;48.746;9.234;2023-02-21T06:55:20;97075.97;;;6.33;77.83
39555;BME280;25231;48.746;9.234;2023-02-21T06:57:46;97085.75;;;6.31;77.64
39555;BME280;25231;48.746;9.234;2023-02-21T07:00:12;97078.75;;;6.32;78.60
39555;BME280;25231;48.746;9.234;2023-02-21T07:02:37;97087.69;;;6.16;78.06
39555;BME280;25231;48.746;9.234;2023-02-21T07:05:04;97086.53;;;5.97;78.04
39555;BME280;25231;48.746;9.234;2023-02-21T07:07:29;97085.91;;;5.67;80.01
39555;BME280;25231;48.746;9.234;2023-02-21T07:09:54;97087.22;;;5.57;81.09
39555;BME280;25231;48.746;9.234;2023-02-21T07:12:20;97079.75;;;5.96;82.45
39555;BME280;25231;48.746;9.234;2023-02-21T07:14:45;97084.63;;;6.40;83.33
39555;BME280;25231;48.746;9.234;2023-02-21T07:17:10;97081.78;;;6.83;82.35
39555;BME280;25231;48.746;9.234;2023-02-21T07:19:36;97081.47;;;7.05;80.05
39555;BME280;25231;48.746;9.234;2023-02-21T07:22:01;97083.13;;;7.33;77.46
39555;BME280;25231;48.746;9.234;2023-02-21T07:24:26;97083.53;;;7.56;77.17
39555;BME280;25231;48.746;9.234;2023-02-21T07:26:52;97081.72;;;7.70;75.29
39555;BME280;25231;48.746;9.234;2023-02-21T07:29:17;97078.94;;;7.78;74.74
39555;BME280;25231;48.746;9.234;2023-02-21T07:31:43;97077.09;;;7.91;73.07
39555;BME280;25231;48.746;9.234;2023-02-21T07:34:08;97076.47;;;8.09;72.40
39555;BME280;25231;48.746;9.234;2023-02-21T07:36:37;97077.47;;;8.08;71.72
39555;BME280;25231;48.746;9.234;2023-02-21T07:39:02;97072.88;;;8.10;71.75
39555;BME280;25231;48.746;9.234;2023-02-21T07:41:28;97074.66;;;8.16;71.33
39555;BME280;25231;48.746;9.234;2023-02-21T07:43:53;97074.47;;;8.24;70.52
39555;BME280;25231;48.746;9.234;2023-02-21T07:46:19;97071.00;;;8.44;70.37
39555;BME280;25231;48.746;9.234;2023-02-21T07:48:44;97079.63;;;8.57;70.39
39555;BME280;25231;48.746;9.234;2023-02-21T07:51:10;97084.22;;;8.62;69.21
39555;BME280;25231;48.746;9.234;2023-02-21T07:53:35;97085.84;;;8.63;69.22
39555;BME280;25231;48.746;9.234;2023-02-21T07:56:02;97087.41;;;8.64;68.86
39555;BME280;25231;48.746;9.234;2023-02-21T07:58:27;97078.88;;;8.88;68.51
39555;BME280;25231;48.746;9.234;2023-02-21T08:00:53;97076.84;;;8.97;68.31
39555;BME280;25231;48.746;9.234;2023-02-21T08:03:20;97081.59;;;9.06;67.60
39555;BME280;25231;48.746;9.234;2023-02-21T08:05:45;97084.19;;;9.13;67.17
39555;BME280;25231;48.746;9.234;2023-02-21T08:08:11;97077.72;;;8.77;70.43
39555;BME280;25231;48.746;9.234;2023-02-21T08:10:36;97081.75;;;8.73;70.46
39555;BME280;25231;48.746;9.234;2023-02-21T08:13:03;97078.38;;;8.66;71.03
39555;BME280;25231;48.746;9.234;2023-02-21T08:15:28;97085.84;;;8.56;72.11
39555;BME280;25231;48.746;9.234;2023-02-21T08:17:53;97087.06;;;8.47;71.98
39555;BME280;25231;48.746;9.234;2023-02-21T08:20:19;97090.31;;;8.36;71.74
39555;BME280;25231;48.746;9.234;2023-02-21T08:22:45;97090.72;;;8.40;71.73
39555;BME280;25231;48.746;9.234;2023-02-21T08:25:11;97089.13;;;8.32;71.42
39555;BME280;25231;48.746;9.234;2023-02-21T08:27:41;97088.47;;;8.50;72.04
39555;BME280;25231;48.746;9.234;2023-02-21T08:30:08;97091.69;;;8.52;71.05
39555;BME280;25231;48.746;9.234;2023-02-21T08:32:35;97089.75;;;8.85;70.15
39555;BME280;25231;48.746;9.234;2023-02-21T08:35:01;97097.47;;;9.11;69.19
39555;BME280;25231;48.746;9.234;2023-02-21T08:37:28;97094.28;;;9.03;68.68
39555;BME280;25231;48.746;9.234;2023-02-21T08:39:58;97094.56;;;9.26;68.20
39555;BME280;25231;48.746;9.234;2023-02-21T08:42:24;97093.69;;;9.39;67.42
39555;BME280;25231;48.746;9.234;2023-02-21T08:44:50;97101.84;;;9.24;67.92
39555;BME280;25231;48.746;9.234;2023-02-21T08:47:17;97093.03;;;9.12;68.92
39555;BME280;25231;48.746;9.234;2023-02-21T08:49:44;97101.38;;;9.34;68.74
39555;BME280;25231;48.746;9.234;2023-02-21T08:52:12;97098.00;;;9.58;68.46
39555;BME280;25231;48.746;9.234;2023-02-21T08:54:39;97086.56;;;9.52;68.25
39555;BME280;25231;48.746;9.234;2023-02-21T08:57:04;97088.13;;;9.53;67.90
39555;BME280;25231;48.746;9.234;2023-02-21T08:59:29;97093.53;;;9.58;67.78
39555;BME280;25231;48.746;9.234;2023-02-21T09:01:58;97086.44;;;9.66;67.66
39555;BME280;25231;48.746;9.234;2023-02-21T09:04:24;97092.31;;;9.61;67.69
39555;BME280;25231;48.746;9.234;2023-02-21T09:06:53;97095.19;;;9.53;68.17
39555;BME280;25231;48.746;9.234;2023-02-21T09:09:19;97093.94;;;9.62;68.37
39555;BME280;25231;48.746;9.234;2023-02-21T09:11:45;97094.47;;;9.71;67.78
39555;BME280;25231;48.746;9.234;2023-02-21T09:14:13;97090.19;;;9.76;67.70
39555;BME280;25231;48.746;9.234;2023-02-21T09:16:38;97091.03;;;9.70;68.07
39555;BME280;25231;48.746;9.234;2023-02-21T09:19:04;97092.00;;;9.76;67.94
39555;BME280;25231;48.746;9.234;2023-02-21T09:21:31;97093.41;;;9.78;68.29
39555;BME280;25231;48.746;9.234;2023-02-21T09:23:57;97096.13;;;9.90;68.58
39555;BME280;25231;48.746;9.234;2023-02-21T09:26:24;97092.50;;;9.91;70.17
39555;BME280;25231;48.746;9.234;2023-02-21T09:28:51;97086.91;;;10.06;70.82
39555;BME280;25231;48.746;9.234;2023-02-21T09:31:17;97092.59;;;10.02;70.25
39555;BME280;25231;48.746;9.234;2023-02-21T09:33:43;97087.84;;;10.18;69.73
39555;BME280;25231;48.746;9.234;2023-02-21T09:36:09;97079.88;;;10.06;69.78
39555;BME280;25231;48.746;9.234;2023-02-21T09:38:35;97087.41;;;10.21;69.35
39555;BME280;25231;48.746;9.234;2023-02-21T09:41:04;97085.69;;;10.33;68.57
39555;BME280;25231;48.746;9.234;2023-02-21T09:43:38;97087.69;;;10.31;68.90
39555;BME280;25231;48.746;9.234;2023-02-21T09:46:18;97079.44;;;10.52;67.49
39555;BME280;25231;48.746;9.234;2023-02-21T09:48:46;97080.16;;;10.59;67.38
39555;BME280;25231;48.746;9.234;2023-02-21T09:51:12;97080.59;;;10.56;66.48
39555;BME280;25231;48.746;9.234;2023-02-21T09:53:41;97075.06;;;10.64;65.77
39555;BME280;25231;48.746;9.234;2023-02-21T09:56:28;97075.69;;;10.78;64.99
39555;BME280;25231;48.746;9.234;2023-02-21T09:58:54;97077.59;;;10.89;64.13
39555;BME280;25231;48.746;9.234;2023-02-21T10:01:46;97078.72;;;10.93;64.78
39555;BME280;25231;48.746;9.234;2023-02-21T10:07:14;97078.50;;;11.13;66.19
39555;BME280;25231;48.746;9.234;2023-02-21T10:09:54;97074.53;;;11.22;65.46
39555;BME280;25231;48.746;9.234;2023-02-21T10:12:28;97071.16;;;11.03;65.76
39555;BME280;25231;48.746;9.234;2023-02-21T10:20:40;97063.91;;;11.17;66.03
39555;BME280;25231;48.746;9.234;2023-02-21T10:23:30;97061.78;;;11.25;64.87
39555;BME280;25231;48.746;9.234;2023-02-21T10:26:04;97068.41;;;11.40;65.39
39555;BME280;25231;48.746;9.234;2023-02-21T10:28:31;97065.31;;;11.31;64.38
39555;BME280;25231;48.746;9.234;2023-02-21T10:31:00;97058.97;;;11.50;65.35
39555;BME280;25231;48.746;9.234;2023-02-21T10:33:27;97070.28;;;11.62;65.59
39555;BME280;25231;48.746;9.234;2023-02-21T10:35:52;97064.16;;;11.68;64.81
39555;BME280;25231;48.746;9.234;2023-02-21T10:38:22;97062.69;;;11.84;64.11
39555;BME280;25231;48.746;9.234;2023-02-21T10:41:01;97068.28;;;11.88;63.57
39555;BME280;25231;48.746;9.234;2023-02-21T10:43:35;97064.75;;;12.05;63.47
39555;BME280;25231;48.746;9.234;2023-02-21T10:46:29;97066.47;;;12.00;62.96
39555;BME280;25231;48.746;9.234;2023-02-21T10:51:43;97067.44;;;11.64;62.55
39555;BME280;25231;48.746;9.234;2023-02-21T10:54:23;97055.75;;;11.48;62.90
39555;BME280;25231;48.746;9.234;2023-02-21T10:56:50;97058.75;;;11.52;62.79
39555;BME280;25231;48.746;9.234;2023-02-21T10:59:20;97058.19;;;11.61;63.32
39555;BME280;25231;48.746;9.234;2023-02-21T11:01:47;97050.22;;;11.68;62.73
39555;BME280;25231;48.746;9.234;2023-02-21T11:06:50;97044.00;;;11.39;62.39
39555;BME280;25231;48.746;9.234;2023-02-21T11:09:41;97037.09;;;11.68;61.85
39555;BME280;25231;48.746;9.234;2023-02-21T11:19:55;97027.44;;;11.92;60.67
39555;BME280;25231;48.746;9.234;2023-02-21T11:22:23;97033.34;;;11.87;60.18
39555;BME280;25231;48.746;9.234;2023-02-21T11:30:36;97019.19;;;12.00;58.32
39555;BME280;25231;48.746;9.234;2023-02-21T11:33:03;97012.59;;;11.86;58.67
39555;BME280;25231;48.746;9.234;2023-02-21T11:35:36;97009.16;;;12.08;57.98
39555;BME280;25231;48.746;9.234;2023-02-21T11:38:06;97008.63;;;12.35;58.42
39555;BME280;25231;48.746;9.234;2023-02-21T11:40:45;97007.16;;;12.16;57.97
39555;BME280;25231;48.746;9.234;2023-02-21T11:43:32;97004.56;;;12.04;57.59
39555;BME280;25231;48.746;9.234;2023-02-21T11:46:16;96995.94;;;12.32;58.17
39555;BME280;25231;48.746;9.234;2023-02-21T11:51:55;96987.97;;;12.67;56.37
39555;BME280;25231;48.746;9.234;2023-02-21T11:54:25;96986.91;;;12.79;55.89
39555;BME280;25231;48.746;9.234;2023-02-21T12:00:02;96976.25;;;12.46;56.91
39555;BME280;25231;48.746;9.234;2023-02-21T12:05:55;96965.31;;;12.66;56.30
39555;BME280;25231;48.746;9.234;2023-02-21T12:08:49;96957.69;;;12.93;56.03
39555;BME280;25231;48.746;9.234;2023-02-21T12:11:43;96951.03;;;12.90;55.42
39555;BME280;25231;48.746;9.234;2023-02-21T12:17:18;96940.88;;;12.82;54.79
39555;BME280;25231;48.746;9.234;2023-02-21T12:20:23;96937.56;;;12.86;54.63
39555;BME280;25231;48.746;9.234;2023-02-21T12:23:07;96932.31;;;12.86;53.86
39555;BME280;25231;48.746;9.234;2023-02-21T12:28:44;96928.03;;;12.97;53.17
39555;BME280;25231;48.746;9.234;2023-02-21T12:34:46;96917.81;;;13.01;52.37
39555;BME280;25231;48.746;9.234;2023-02-21T12:40:04;96907.38;;;13.39;52.41
39555;BME280;25231;48.746;9.234;2023-02-21T12:45:52;96891.19;;;13.47;51.95
39555;BME280;25231;48.746;9.234;2023-02-21T12:48:35;96888.66;;;13.36;51.79
39555;BME280;25231;48.746;9.234;2023-02-21T12:51:09;96884.75;;;13.60;52.31
39555;BME280;25231;48.746;9.234;2023-02-21T12:53:46;96881.59;;;13.80;50.31
39555;BME280;25231;48.746;9.234;2023-02-21T12:58:50;96869.66;;;13.94;50.70
39555;BME280;25231;48.746;9.234;2023-02-21T13:01:25;96856.78;;;14.19;50.48
39555;BME280;25231;48.746;9.234;2023-02-21T13:07:08;96854.44;;;14.23;49.17
39555;BME280;25231;48.746;9.234;2023-02-21T13:12:27;96848.13;;;14.24;49.61
39555;BME280;25231;48.746;9.234;2023-02-21T13:14:59;96833.28;;;14.39;49.37
39555;BME280;25231;48.746;9.234;2023-02-21T13:17:26;96842.53;;;14.42;48.91
39555;BME280;25231;48.746;9.234;2023-02-21T13:20:18;96827.38;;;14.32;48.65
39555;BME280;25231;48.746;9.234;2023-02-21T13:26:26;96823.66;;;14.55;48.83
39555;BME280;25231;48.746;9.234;2023-02-21T13:28:56;96815.84;;;14.65;48.46
39555;BME280;25231;48.746;9.234;2023-02-21T13:31:25;96814.00;;;14.66;47.73
39555;BME280;25231;48.746;9.234;2023-02-21T13:33:54;96810.94;;;14.47;47.96
39555;BME280;25231;48.746;9.234;2023-02-21T13:36:39;96803.59;;;14.27;48.33
39555;BME280;25231;48.746;9.234;2023-02-21T13:39:15;96802.94;;;14.37;47.98
39555;BME280;25231;48.746;9.234;2023-02-21T13:52:33;96780.41;;;14.29;48.24
39555;BME280;25231;48.746;9.234;2023-02-21T13:57:45;96778.06;;;14.33;48.31
39555;BME280;25231;48.746;9.234;2023-02-21T14:08:28;96761.03;;;14.77;47.54
39555;BME280;25231;48.746;9.234;2023-02-21T14:18:43;96746.63;;;14.90;47.52
39555;BME280;25231;48.746;9.234;2023-02-21T14:21:24;96745.38;;;14.97;47.35
39555;BME280;25231;48.746;9.234;2023-02-21T14:23:55;96740.56;;;14.94;46.50
39555;BME280;25231;48.746;9.234;2023-02-21T14:29:36;96740.59;;;14.99;46.88
39555;BME280;25231;48.746;9.234;2023-02-21T14:34:40;96731.28;;;14.82;46.21
39555;BME280;25231;48.746;9.234;2023-02-21T14:38:22;96738.16;;;14.88;46.69
39555;BME280;25231;48.746;9.234;2023-02-21T14:43:25;96724.28;;;15.03;46.07
39555;BME280;25231;48.746;9.234;2023-02-21T14:48:51;96720.03;;;14.96;46.43
39555;BME280;25231;48.746;9.234;2023-02-21T15:00:16;96708.25;;;14.72;47.23
39555;BME280;25231;48.746;9.234;2023-02-21T15:07:52;96697.38;;;14.64;47.41
39555;BME280;25231;48.746;9.234;2023-02-21T15:12:57;96706.38;;;14.68;47.06
39555;BME280;25231;48.746;9.234;2023-02-21T15:15:34;96701.91;;;14.68;46.56
39555;BME280;25231;48.746;9.234;2023-02-21T15:18:09;96710.34;;;14.65;46.37
39555;BME280;25231;48.746;9.234;2023-02-21T15:20:37;96700.59;;;14.71;46.25
39555;BME280;25231;48.746;9.234;2023-02-21T15:25:37;96699.25;;;14.68;46.26
39555;BME280;25231;48.746;9.234;2023-02-21T15:28:06;96700.06;;;14.69;46.39
39555;BME280;25231;48.746;9.234;2023-02-21T15:30:37;96700.56;;;14.66;46.30
39555;BME280;25231;48.746;9.234;2023-02-21T15:33:11;96692.09;;;14.59;46.21
39555;BME280;25231;48.746;9.234;2023-02-21T15:38:41;96687.09;;;14.62;46.11
39555;BME280;25231;48.746;9.234;2023-02-21T15:46:34;96679.88;;;14.47;46.50
39555;BME280;25231;48.746;9.234;2023-02-21T15:49:04;96672.47;;;14.49;46.33
39555;BME280;25231;48.746;9.234;2023-02-21T15:51:29;96679.09;;;14.52;47.15
39555;BME280;25231;48.746;9.234;2023-02-21T15:56:40;96669.00;;;14.39;48.71
39555;BME280;25231;48.746;9.234;2023-02-21T15:59:17;96665.69;;;14.27;49.21
39555;BME280;25231;48.746;9.234;2023-02-21T16:01:43;96668.53;;;14.15;49.45